Time;durP1;ratioP1;P1;durP2;ratioP2;P2;SDS_P1;SDS_P2;PMS_P1;PMS_P2;Temp;Humidity;BMP_temperature;BMP_pressure;BME280_temperature;BME280_humidity;BME280_pressure;Samples;Min_cycle;Max_cycle;Signal;HPM_P1;HPM_P2
2021/11/19 00:00:57;;;;;;;28.95;15.45;;;;;;;5.51;60.40;98952.09;3408172;28;20050;-75
2021/11/19 00:02:38;;;;;;;25.88;14.90;;;;;;;5.50;60.29;98951.28;3419509;28;20418;-76
2021/11/19 00:04:18;;;;;;;26.63;14.52;;;;;;;5.51;60.27;98939.72;3423140;28;20043;-75
2021/11/19 00:05:59;;;;;;;26.77;14.80;;;;;;;5.51;60.47;98952.09;3411037;28;20539;-75
2021/11/19 00:07:40;;;;;;;27.80;16.20;;;;;;;5.53;60.47;98948.28;3423994;28;20386;-76
2021/11/19 00:09:22;;;;;;;26.65;15.40;;;;;;;5.53;60.36;98942.19;3422869;28;20047;-76
2021/11/19 00:11:06;;;;;;;23.30;14.82;;;;;;;5.53;60.42;98939.53;3418262;28;20047;-74
2021/11/19 00:12:46;;;;;;;23.33;13.88;;;;;;;5.52;60.50;98943.16;3416574;28;20541;-72
2021/11/19 00:14:27;;;;;;;29.40;15.05;;;;;;;5.50;60.70;98945.16;3426144;28;20121;-72
2021/11/19 00:16:09;;;;;;;22.27;13.50;;;;;;;5.47;60.73;98941.91;3428952;28;20498;-74
2021/11/19 00:17:49;;;;;;;25.13;14.98;;;;;;;5.48;60.78;98937.44;3429136;28;20043;-74
2021/11/19 00:19:31;;;;;;;23.38;13.43;;;;;;;5.49;60.74;98933.78;3428749;28;20047;-74
2021/11/19 00:21:12;;;;;;;25.25;14.07;;;;;;;5.46;60.83;98924.38;3428436;28;20050;-74
2021/11/19 00:22:53;;;;;;;23.70;15.90;;;;;;;5.49;60.77;98928.50;3428748;28;20062;-74
2021/11/19 00:24:35;;;;;;;26.23;13.73;;;;;;;5.47;60.82;98922.56;3427702;28;20227;-74
2021/11/19 00:26:17;;;;;;;24.92;12.85;;;;;;;5.49;60.91;98925.84;3428748;28;20536;-75
2021/11/19 00:27:59;;;;;;;28.45;14.40;;;;;;;5.49;61.02;98919.75;3428067;28;20399;-74
2021/11/19 00:29:40;;;;;;;27.35;14.45;;;;;;;5.52;60.95;98922.84;3428745;28;20125;-73
2021/11/19 00:31:23;;;;;;;29.47;14.77;;;;;;;5.53;60.98;98919.22;3429451;28;20054;-75
2021/11/19 00:33:06;;;;;;;24.98;12.57;;;;;;;5.55;61.08;98917.22;3428321;28;20358;-74
2021/11/19 00:34:48;;;;;;;23.83;13.00;;;;;;;5.53;61.08;98916.56;3427432;28;20034;-74
2021/11/19 00:36:30;;;;;;;;;;;;;;;5.64;60.84;98920.59;3429968;28;20039;-73
2021/11/19 00:38:13;;;;;;;23.10;12.18;;;;;;;5.55;60.96;98909.28;3428193;28;20468;-72
2021/11/19 00:39:53;;;;;;;28.52;15.02;;;;;;;5.53;61.06;98913.94;3427096;28;20534;-76
2021/11/19 00:41:35;;;;;;;21.13;13.63;;;;;;;5.50;60.92;98903.72;3428397;28;20078;-74
2021/11/19 00:43:16;;;;;;;22.90;13.30;;;;;;;5.51;61.10;98905.34;3427880;28;20046;-74
2021/11/19 00:44:57;;;;;;;25.15;13.35;;;;;;;5.52;61.15;98903.53;3427876;28;20592;-73
2021/11/19 00:46:40;;;;;;;26.15;13.57;;;;;;;5.51;61.23;98897.44;3415942;28;20130;-75
2021/11/19 00:48:23;;;;;;;25.05;13.23;;;;;;;5.52;61.25;98896.41;3414805;28;20085;-75
2021/11/19 00:50:07;;;;;;;21.17;12.68;;;;;;;5.51;61.34;98891.31;3416469;28;20077;-78
2021/11/19 00:51:51;;;;;;;24.25;12.55;;;;;;;5.51;61.40;98884.22;3400718;29;20048;-74
2021/11/19 00:53:34;;;;;;;26.30;14.15;;;;;;;5.53;61.35;98887.50;3412761;28;20063;-74
2021/11/19 00:55:14;;;;;;;24.27;12.98;;;;;;;5.54;61.29;98889.13;3402006;28;20415;-74
2021/11/19 00:57:00;;;;;;;22.20;12.27;;;;;;;5.53;61.33;98881.41;3412510;28;20054;-75
2021/11/19 00:58:41;;;;;;;27.45;13.10;;;;;;;5.55;61.29;98884.66;3422937;28;20051;-73
2021/11/19 01:00:29;;;;;;;25.92;12.73;;;;;;;5.55;61.46;98879.38;3414235;28;20047;-73
2021/11/19 01:02:15;;;;;;;23.05;13.43;;;;;;;5.56;61.43;98886.31;3428831;28;20054;-74
2021/11/19 01:03:56;;;;;;;25.08;14.23;;;;;;;5.57;61.41;98872.91;3416716;28;20557;-73
2021/11/19 01:05:39;;;;;;;24.67;13.68;;;;;;;5.58;61.33;98884.31;3413746;28;20066;-72
2021/11/19 01:07:21;;;;;;;20.90;13.27;;;;;;;5.56;61.65;98884.47;3413588;28;20042;-71
2021/11/19 01:09:09;;;;;;;24.15;12.02;;;;;;;5.56;61.53;98887.13;3427580;28;20093;-73
2021/11/19 01:10:51;;;;;;;25.67;13.55;;;;;;;5.57;61.51;98877.38;3416330;28;20036;-75
2021/11/19 01:12:33;;;;;;;20.40;12.55;;;;;;;5.57;61.41;98872.09;3416799;28;20047;-73
2021/11/19 01:14:22;;;;;;;26.33;13.73;;;;;;;5.57;61.59;98880.00;3413765;28;20098;-76
2021/11/19 01:16:11;;;;;;;24.63;13.73;;;;;;;5.57;61.55;98880.81;3409248;28;20503;-75
2021/11/19 01:17:57;;;;;;;24.30;13.60;;;;;;;5.57;61.46;98867.63;3416609;28;20043;-75
2021/11/19 01:19:49;;;;;;;21.80;12.82;;;;;;;5.59;61.67;98864.78;3417647;28;20106;-74
2021/11/19 01:21:44;;;;;;;24.00;12.57;;;;;;;5.59;61.62;98881.47;3390361;29;20044;-75
2021/11/19 01:23:27;;;;;;;26.60;15.63;;;;;;;5.62;61.36;98869.72;3415284;28;20054;-76
2021/11/19 01:25:12;;;;;;;22.02;11.98;;;;;;;5.61;61.55;98871.53;3417584;28;20071;-75
2021/11/19 01:26:54;;;;;;;26.73;15.25;;;;;;;5.62;61.58;98875.81;3403720;29;20511;-75
2021/11/19 01:28:36;;;;;;;24.35;12.82;;;;;;;5.60;61.55;98871.72;3413715;28;20178;-76
2021/11/19 01:30:25;;;;;;;25.52;14.88;;;;;;;5.61;61.71;98855.69;3417919;28;20035;-75
2021/11/19 01:32:20;;;;;;;24.33;11.85;;;;;;;5.64;61.85;98859.78;3417836;28;20050;-73
2021/11/19 01:34:20;;;;;;;22.60;13.18;;;;;;;5.63;61.75;98858.97;3416462;28;20388;-74
2021/11/19 01:36:23;;;;;;;26.95;12.38;;;;;;;5.66;61.88;98865.72;3430178;28;20090;-74
2021/11/19 01:38:36;;;;;;;20.58;12.15;;;;;;;5.75;62.13;98875.16;3418592;28;20173;-74
2021/11/19 01:40:34;;;;;;;23.48;11.30;;;;;;;5.80;62.17;98875.44;3417260;28;20059;-71
2021/11/19 01:42:30;;;;;;;23.75;12.88;;;;;;;5.89;62.31;98876.19;3428206;28;20066;-72
2021/11/19 01:44:30;;;;;;;17.25;9.63;;;;;;;6.05;64.65;98873.34;3408176;28;20077;-71
2021/11/19 01:46:18;;;;;;;21.17;10.80;;;;;;;6.24;63.32;98873.75;3415855;28;20553;-74
2021/11/19 01:47:59;;;;;;;24.45;13.43;;;;;;;6.36;62.54;98872.28;3427989;28;20046;-71
2021/11/19 01:49:43;;;;;;;21.35;12.20;;;;;;;6.47;61.97;98870.94;3429009;28;20573;-70
2021/11/19 01:51:29;;;;;;;20.88;11.40;;;;;;;6.54;61.59;98867.38;3426926;28;20039;-72
2021/11/19 01:53:18;;;;;;;21.58;11.82;;;;;;;6.65;62.25;98862.56;3421868;28;20530;-71
2021/11/19 01:55:22;;;;;;;21.85;11.93;;;;;;;6.80;61.86;98863.31;3417249;28;20416;-72
2021/11/19 01:57:17;;;;;;;24.77;12.68;;;;;;;6.77;61.13;98853.13;3389635;29;20043;-72
2021/11/19 01:59:06;;;;;;;28.08;12.95;;;;;;;6.80;60.96;98852.72;3389575;29;20071;-73
2021/11/19 02:00:54;;;;;;;24.75;13.32;;;;;;;6.81;60.81;98851.72;3399369;29;20060;-72
2021/11/19 02:02:38;;;;;;;19.85;11.90;;;;;;;6.76;60.56;98851.47;3413854;28;20039;-71
2021/11/19 02:04:24;;;;;;;20.00;11.43;;;;;;;6.71;60.52;98853.84;3414681;28;20118;-72
2021/11/19 02:06:12;;;;;;;22.70;12.50;;;;;;;6.69;60.67;98853.25;3415915;28;20039;-70
2021/11/19 02:08:04;;;;;;;21.58;11.70;;;;;;;6.70;60.47;98854.88;3405591;28;20040;-71
2021/11/19 02:10:07;;;;;;;19.15;9.15;;;;;;;6.84;61.22;98854.00;3406057;29;20068;-72
2021/11/19 02:12:14;;;;;;;20.88;12.05;;;;;;;7.01;60.96;98854.53;3411463;28;20095;-71
2021/11/19 02:14:27;;;;;;;19.33;9.52;;;;;;;7.09;61.57;98849.06;3397160;29;20567;-71
2021/11/19 02:16:15;;;;;;;18.85;11.30;;;;;;;7.17;60.46;98851.56;3415980;28;20446;-72
2021/11/19 02:18:02;;;;;;;24.25;12.32;;;;;;;7.24;60.00;98856.94;3416209;28;20065;-72
2021/11/19 02:19:47;;;;;;;19.35;11.27;;;;;;;7.27;60.08;98861.84;3428083;28;20043;-72
2021/11/19 02:21:37;;;;;;;23.42;13.20;;;;;;;7.31;59.73;98854.34;3415878;28;20054;-72
2021/11/19 02:23:35;;;;;;;20.27;12.25;;;;;;;7.27;59.56;98853.91;3414174;28;20063;-71
2021/11/19 02:25:38;;;;;;;26.83;13.10;;;;;;;7.28;59.40;98855.56;3414787;28;20096;-74
2021/11/19 02:27:23;;;;;;;22.55;13.05;;;;;;;7.21;59.55;98855.50;3389923;29;20056;-73
2021/11/19 02:29:05;;;;;;;20.95;13.02;;;;;;;7.19;59.55;98856.69;3400544;29;20404;-72
2021/11/19 02:30:50;;;;;;;22.48;12.10;;;;;;;7.19;59.45;98856.69;3414022;28;20094;-72
2021/11/19 02:32:36;;;;;;;22.98;11.00;;;;;;;7.19;59.64;98856.69;3415196;28;20051;-73
2021/11/19 02:34:19;;;;;;;22.88;12.52;;;;;;;7.15;59.52;98844.84;3402743;29;20039;-74
2021/11/19 02:36:18;;;;;;;21.55;10.98;;;;;;;7.20;59.29;98843.28;3398457;28;20041;-73
2021/11/19 02:38:04;;;;;;;21.75;11.65;;;;;;;7.18;59.01;98849.78;3429879;28;20094;-73
2021/11/19 02:39:52;;;;;;;17.33;10.82;;;;;;;7.13;59.14;98838.94;3401867;29;20489;-71
2021/11/19 02:41:36;;;;;;;18.48;11.80;;;;;;;7.10;59.20;98842.78;3426383;28;20045;-71
2021/11/19 02:43:42;;;;;;;29.50;12.57;;;;;;;7.11;59.08;98843.59;3428124;28;20137;-73
2021/11/19 02:45:38;;;;;;;23.00;12.93;;;;;;;7.06;59.14;98841.53;3429171;28;20135;-72
2021/11/19 02:47:22;;;;;;;19.70;11.23;;;;;;;6.98;59.15;98845.13;3414452;28;20043;-72
2021/11/19 02:49:04;;;;;;;22.40;11.15;;;;;;;6.94;59.32;98849.19;3402456;28;20423;-72
2021/11/19 02:50:46;;;;;;;22.23;11.75;;;;;;;6.94;59.39;98843.91;3400290;28;20656;-73
2021/11/19 02:52:37;;;;;;;19.67;11.52;;;;;;;7.02;59.26;98860.63;3404441;28;20044;-72
2021/11/19 02:54:23;;;;;;;20.10;11.10;;;;;;;7.01;59.08;98857.19;3414584;28;20435;-74
2021/11/19 02:56:04;;;;;;;20.15;10.48;;;;;;;7.04;59.06;98853.31;3417777;28;20043;-72
2021/11/19 02:57:49;;;;;;;20.20;11.10;;;;;;;7.03;58.98;98835.81;3428572;28;20058;-73
2021/11/19 02:59:29;;;;;;;21.85;11.10;;;;;;;6.98;58.91;98831.88;3415307;28;20130;-72
2021/11/19 03:01:16;;;;;;;23.27;11.43;;;;;;;6.95;58.94;98834.13;3425660;28;20070;-71
2021/11/19 03:02:57;;;;;;;17.60;10.88;;;;;;;6.93;58.99;98833.47;3417409;28;20090;-71
2021/11/19 03:04:49;;;;;;;20.63;12.43;;;;;;;6.96;59.41;98828.59;3426231;28;20421;-72
2021/11/19 03:06:40;;;;;;;18.80;11.48;;;;;;;6.95;59.03;98824.34;3429070;28;20089;-73
2021/11/19 03:08:21;;;;;;;15.98;10.25;;;;;;;6.88;59.00;98826.09;3414985;28;20051;-72
2021/11/19 03:10:18;;;;;;;17.83;11.32;;;;;;;6.82;59.31;98821.59;3413769;28;20482;-73
2021/11/19 03:11:59;;;;;;;20.80;10.90;;;;;;;6.82;59.33;98821.59;3427847;28;20038;-74
2021/11/19 03:13:41;;;;;;;20.17;10.88;;;;;;;6.79;59.39;98814.03;3415998;28;20058;-73
2021/11/19 03:15:26;;;;;;;15.85;9.90;;;;;;;6.80;59.34;98820.13;3412208;28;20082;-73
2021/11/19 03:17:10;;;;;;;18.13;11.32;;;;;;;6.81;59.55;98827.06;3413895;28;20418;-73
2021/11/19 03:18:51;;;;;;;20.13;10.90;;;;;;;6.85;59.39;98823.84;3401468;29;20149;-74
2021/11/19 03:20:32;;;;;;;16.92;9.93;;;;;;;6.86;59.11;98811.41;3413160;28;20175;-72
2021/11/19 03:22:16;;;;;;;20.00;10.68;;;;;;;6.87;58.89;98816.53;3401375;29;20060;-71
2021/11/19 03:23:57;;;;;;;20.15;11.18;;;;;;;6.88;59.04;98814.69;3399248;29;20100;-73
2021/11/19 03:25:40;;;;;;;19.48;11.15;;;;;;;6.85;59.02;98813.25;3411974;28;20043;-71
2021/11/19 03:27:24;;;;;;;15.00;10.10;;;;;;;6.83;59.12;98803.84;3415197;28;20130;-74
2021/11/19 03:29:14;;;;;;;22.40;11.18;;;;;;;6.81;59.23;98806.69;3413116;28;20035;-72
2021/11/19 03:31:04;;;;;;;17.65;10.45;;;;;;;6.81;59.12;98801.38;3412323;28;20039;-74
2021/11/19 03:32:47;;;;;;;18.83;10.43;;;;;;;6.82;59.28;98796.94;3413513;28;20051;-75
2021/11/19 03:34:28;;;;;;;18.80;10.52;;;;;;;6.81;59.24;98798.75;3412523;28;20040;-73
2021/11/19 03:36:11;;;;;;;19.98;10.57;;;;;;;6.77;59.31;98797.50;3411604;28;20541;-71
2021/11/19 03:37:53;;;;;;;17.40;10.40;;;;;;;6.75;59.25;98794.22;3413281;28;20046;-72
2021/11/19 03:39:34;;;;;;;17.17;10.68;;;;;;;6.74;59.28;98796.06;3414398;28;20050;-73
2021/11/19 03:41:20;;;;;;;19.00;11.10;;;;;;;6.77;59.34;98789.56;3403888;28;20043;-74
2021/11/19 03:43:03;;;;;;;22.77;11.30;;;;;;;6.82;59.36;98797.75;3413541;28;20159;-73
2021/11/19 03:44:57;;;;;;;21.27;11.32;;;;;;;6.92;59.28;98789.47;3401821;29;20051;-72
2021/11/19 03:46:51;;;;;;;18.13;10.93;;;;;;;7.00;59.20;98789.31;3409284;29;20122;-72
2021/11/19 03:48:34;;;;;;;19.75;10.43;;;;;;;7.00;58.81;98794.63;3428390;28;20181;-73
2021/11/19 03:50:22;;;;;;;;;;;;;;;7.11;58.60;98801.22;3417575;28;20035;-71
2021/11/19 03:52:14;;;;;;;20.33;9.60;;;;;;;7.05;58.84;98797.50;3413143;28;19928;-73
2021/11/19 03:53:55;;;;;;;16.55;9.85;;;;;;;7.10;58.82;98810.16;3413344;28;20193;-72
2021/11/19 03:55:39;;;;;;;19.70;9.65;;;;;;;7.22;58.90;98817.38;3401688;28;20092;-72
2021/11/19 03:57:21;;;;;;;18.40;11.43;;;;;;;7.32;58.80;98811.72;3411615;28;20598;-75
2021/11/19 03:59:04;;;;;;;18.70;9.52;;;;;;;7.37;58.73;98801.34;3424773;28;20039;-72
2021/11/19 04:00:50;;;;;;;17.10;10.88;;;;;;;7.38;58.48;98800.34;3416574;28;20066;-72
2021/11/19 04:02:32;;;;;;;20.33;9.25;;;;;;;7.40;58.45;98810.75;3425792;28;20065;-73
2021/11/19 04:04:16;;;;;;;18.63;10.13;;;;;;;7.42;58.50;98806.88;3414094;28;20039;-71
2021/11/19 04:05:57;;;;;;;15.05;8.70;;;;;;;7.55;58.58;98807.97;3425397;28;20474;-72
2021/11/19 04:07:38;;;;;;;18.90;9.68;;;;;;;7.70;58.43;98816.63;3427759;28;20047;-72
2021/11/19 04:09:20;;;;;;;16.50;10.63;;;;;;;7.79;58.06;98812.75;3427642;28;20368;-71
2021/11/19 04:11:03;;;;;;;19.65;10.40;;;;;;;7.80;57.83;98811.75;3412792;28;20043;-74
2021/11/19 04:12:44;;;;;;;18.15;10.20;;;;;;;7.76;57.78;98810.50;3424505;28;20063;-72
2021/11/19 04:14:27;;;;;;;20.27;10.40;;;;;;;7.73;57.63;98810.91;3417967;28;20051;-73
2021/11/19 04:16:16;;;;;;;21.70;11.07;;;;;;;7.67;57.75;98816.16;3415123;28;20418;-71
2021/11/19 04:17:57;;;;;;;19.05;9.75;;;;;;;7.62;57.66;98822.91;3413817;28;20489;-73
2021/11/19 04:19:38;;;;;;;24.90;12.25;;;;;;;7.62;57.88;98819.44;3387567;29;20566;-71
2021/11/19 04:21:23;;;;;;;18.10;10.02;;;;;;;7.64;58.02;98817.38;3396352;29;20043;-73
2021/11/19 04:23:05;;;;;;;18.63;10.50;;;;;;;7.70;58.09;98827.22;3402061;29;20047;-74
2021/11/19 04:24:59;;;;;;;19.52;10.70;;;;;;;7.72;57.75;98819.91;3401252;28;20051;-72
2021/11/19 04:26:41;;;;;;;20.30;11.02;;;;;;;7.70;57.76;98813.97;3402375;29;20039;-71
2021/11/19 04:28:24;;;;;;;19.80;10.52;;;;;;;7.69;57.78;98824.75;3413882;28;20221;-71
2021/11/19 04:30:25;;;;;;;20.63;11.88;;;;;;;7.62;57.73;98825.56;3414681;28;20043;-71
2021/11/19 04:32:09;;;;;;;16.83;9.90;;;;;;;7.62;58.08;98824.75;3415101;28;20426;-72
2021/11/19 04:33:51;;;;;;;17.33;10.73;;;;;;;7.62;58.07;98830.84;3427607;28;20050;-73
2021/11/19 04:35:32;;;;;;;19.02;9.80;;;;;;;7.64;58.02;98820.03;3415569;28;20450;-70
2021/11/19 04:37:15;;;;;;;21.55;10.60;;;;;;;7.62;57.90;98812.28;3424262;28;20045;-73
2021/11/19 04:38:55;;;;;;;16.77;9.68;;;;;;;7.67;57.92;98817.00;3417124;28;20047;-72
2021/11/19 04:40:37;;;;;;;18.88;10.80;;;;;;;7.76;57.97;98820.31;3414144;28;20506;-73
2021/11/19 04:42:19;;;;;;;19.45;10.60;;;;;;;7.81;57.91;98825.84;3411900;28;20498;-74
2021/11/19 04:44:00;;;;;;;19.85;10.00;;;;;;;7.81;57.83;98823.19;3427591;28;20042;-74
2021/11/19 04:45:48;;;;;;;20.83;10.70;;;;;;;7.82;57.70;98814.19;3415859;28;20094;-73
2021/11/19 04:47:29;;;;;;;18.70;10.68;;;;;;;7.82;57.70;98815.03;3408292;28;21956;-74
2021/11/19 04:49:10;;;;;;;21.75;10.20;;;;;;;7.82;57.56;98817.69;3401443;29;20475;-73
2021/11/19 04:50:52;;;;;;;17.58;10.13;;;;;;;7.81;57.42;98823.19;3414362;28;20051;-73
2021/11/19 04:52:32;;;;;;;17.63;10.07;;;;;;;7.79;57.65;98826.03;3400553;29;20047;-71
2021/11/19 04:54:15;;;;;;;16.88;10.75;;;;;;;7.72;57.55;98822.53;3407000;28;20067;-74
2021/11/19 04:55:56;;;;;;;22.20;9.82;;;;;;;7.66;57.70;98825.97;3414797;28;20039;-73
2021/11/19 04:57:37;;;;;;;21.75;11.68;;;;;;;7.57;57.80;98821.88;3413475;28;20066;-73
2021/11/19 04:59:21;;;;;;;16.52;8.70;;;;;;;7.52;57.78;98822.44;3414673;28;20044;-73
2021/11/19 05:01:14;;;;;;;24.13;11.73;;;;;;;7.53;58.13;98831.22;3426745;28;20166;-73
2021/11/19 05:03:13;;;;;;;19.10;10.20;;;;;;;7.52;57.81;98826.94;3400353;29;20531;-74
2021/11/19 05:04:54;;;;;;;18.85;10.23;;;;;;;7.50;57.83;98832.41;3410617;28;20066;-73
2021/11/19 05:06:43;;;;;;;18.75;9.88;;;;;;;7.49;57.86;98829.97;3410826;28;20058;-75
2021/11/19 05:08:23;;;;;;;16.77;9.65;;;;;;;7.42;58.14;98828.09;3427695;28;20450;-75
2021/11/19 05:10:06;;;;;;;15.57;9.23;;;;;;;7.41;58.32;98823.81;3416173;28;20046;-72
2021/11/19 05:11:54;;;;;;;18.10;9.65;;;;;;;7.37;58.42;98817.25;3413433;28;20075;-72
2021/11/19 05:13:37;;;;;;;15.55;9.50;;;;;;;7.41;58.51;98829.13;3411917;28;20050;-73
2021/11/19 05:15:23;;;;;;;22.13;10.18;;;;;;;7.40;58.53;98824.81;3410666;28;20039;-74
2021/11/19 05:17:06;;;;;;;20.52;11.07;;;;;;;7.36;58.38;98820.13;3411219;28;20055;-74
2021/11/19 05:18:49;;;;;;;19.48;9.35;;;;;;;7.31;58.56;98828.66;3398762;29;20051;-75
2021/11/19 05:20:30;;;;;;;16.60;10.15;;;;;;;7.26;58.73;98831.06;3412094;28;20047;-72
2021/11/19 05:22:11;;;;;;;17.40;8.90;;;;;;;7.24;58.83;98833.09;3413464;28;20039;-73
2021/11/19 05:23:52;;;;;;;22.20;10.45;;;;;;;7.18;59.13;98817.97;3410976;28;20036;-73
2021/11/19 05:25:34;;;;;;;19.48;10.35;;;;;;;7.27;59.42;98838.00;3406775;28;20443;-73
2021/11/19 05:27:15;;;;;;;14.57;8.45;;;;;;;7.32;59.21;98830.28;3398762;29;20091;-81
2021/11/19 05:28:58;;;;;;;21.25;9.88;;;;;;;7.38;59.44;98828.69;3411989;28;20074;-77
2021/11/19 05:30:40;;;;;;;17.30;9.77;;;;;;;7.41;59.41;98834.41;3405857;28;20140;-75
2021/11/19 05:32:23;;;;;;;21.40;10.95;;;;;;;7.46;59.36;98825.91;3412122;28;20151;-71
2021/11/19 05:34:06;;;;;;;17.45;9.98;;;;;;;7.48;59.22;98823.84;3411617;28;20498;-70
2021/11/19 05:35:50;;;;;;;20.42;10.82;;;;;;;7.49;59.23;98825.50;3413920;28;20039;-72
2021/11/19 05:37:32;;;;;;;17.55;9.73;;;;;;;7.48;59.23;98828.31;3413911;28;20043;-71
2021/11/19 05:39:12;;;;;;;16.85;9.95;;;;;;;7.44;59.12;98822.59;3424512;28;20406;-72
2021/11/19 05:40:58;;;;;;;16.80;9.60;;;;;;;7.43;59.19;98823.59;3412930;28;20091;-69
2021/11/19 05:42:40;;;;;;;17.42;9.85;;;;;;;7.45;59.65;98818.13;3411496;28;20051;-73
2021/11/19 05:44:21;;;;;;;15.83;9.30;;;;;;;7.49;59.56;98819.38;3423758;28;20046;-75
2021/11/19 05:46:25;;;;;;;14.20;9.18;;;;;;;7.52;59.40;98818.97;3413354;28;20047;-72
2021/11/19 05:48:08;;;;;;;18.95;9.93;;;;;;;7.52;59.53;98825.09;3412805;28;20403;-74
2021/11/19 05:49:51;;;;;;;19.35;10.15;;;;;;;7.53;59.51;98825.91;3416253;28;20043;-74
2021/11/19 05:51:32;;;;;;;13.95;8.10;;;;;;;7.51;59.43;98825.28;3413040;28;20571;-73
2021/11/19 05:53:13;;;;;;;16.00;9.18;;;;;;;7.49;59.41;98827.34;3426303;28;20101;-72
2021/11/19 05:54:54;;;;;;;16.80;9.23;;;;;;;7.53;59.36;98817.94;3426592;28;20031;-73
2021/11/19 05:56:35;;;;;;;14.82;9.23;;;;;;;7.64;59.76;98822.69;3432804;28;20140;-71
2021/11/19 05:58:17;;;;;;;19.92;9.93;;;;;;;7.75;59.43;98824.81;3429074;28;20164;-73
2021/11/19 05:59:59;;;;;;;17.90;10.05;;;;;;;7.83;59.07;98829.94;3438660;28;20526;-73
2021/11/19 06:01:58;;;;;;;19.00;10.13;;;;;;;7.80;58.96;98822.38;3414046;28;20503;-73
2021/11/19 06:03:51;;;;;;;15.52;8.35;;;;;;;7.81;58.78;98831.13;3405765;28;20040;-73
2021/11/19 06:05:36;;;;;;;18.27;9.73;;;;;;;7.85;58.71;98830.56;3414362;28;20050;-72
2021/11/19 06:07:40;;;;;;;14.65;8.35;;;;;;;7.90;59.06;98829.97;3412618;28;20055;-73
2021/11/19 06:09:31;;;;;;;15.55;9.55;;;;;;;7.96;58.83;98826.50;3417392;28;20065;-72
2021/11/19 06:11:15;;;;;;;18.05;9.93;;;;;;;7.99;58.77;98826.09;3414418;28;20173;-73
2021/11/19 06:13:08;;;;;;;16.63;9.40;;;;;;;8.03;58.37;98826.53;3393014;29;20056;-74
2021/11/19 06:14:52;;;;;;;16.35;8.88;;;;;;;8.02;58.43;98824.88;3400577;29;20066;-73
2021/11/19 06:16:37;;;;;;;18.13;10.48;;;;;;;8.00;58.23;98822.44;3403601;29;20063;-72
2021/11/19 06:18:22;;;;;;;18.38;9.50;;;;;;;8.01;58.40;98823.25;3377943;29;20041;-73
2021/11/19 06:20:11;;;;;;;14.63;8.88;;;;;;;8.00;58.16;98821.63;3394261;29;20050;-74
2021/11/19 06:21:59;;;;;;;15.68;9.50;;;;;;;7.94;58.18;98814.47;3400125;29;20060;-74
2021/11/19 06:23:45;;;;;;;19.45;10.13;;;;;;;7.91;58.29;98812.22;3400445;29;20050;-73
2021/11/19 06:25:29;;;;;;;13.68;7.85;;;;;;;7.99;58.73;98806.72;3384557;29;20438;-73
2021/11/19 06:27:13;;;;;;;17.02;9.38;;;;;;;8.07;58.21;98795.91;3398223;29;20451;-74
2021/11/19 06:29:02;;;;;;;22.83;10.02;;;;;;;8.08;58.05;98793.06;3387023;29;20090;-74
2021/11/19 06:30:45;;;;;;;14.43;8.43;;;;;;;8.07;57.86;98801.22;3396661;29;20040;-75
2021/11/19 06:32:27;;;;;;;18.25;9.05;;;;;;;8.03;58.00;98807.97;3412863;29;20047;-73
2021/11/19 06:34:08;;;;;;;22.80;12.95;;;;;;;7.98;58.13;98802.44;3405569;29;20090;-72
2021/11/19 06:35:49;;;;;;;19.70;11.15;;;;;;;7.93;58.19;98805.69;3401655;29;20040;-75
2021/11/19 06:37:30;;;;;;;18.80;10.75;;;;;;;7.91;58.00;98806.91;3397246;29;20036;-74
2021/11/19 06:39:32;;;;;;;15.93;9.98;;;;;;;7.89;58.12;98811.59;3393168;29;20039;-75
2021/11/19 06:41:15;;;;;;;15.63;8.75;;;;;;;7.83;57.98;98810.53;3415045;29;20054;-75
2021/11/19 06:43:06;;;;;;;13.88;7.95;;;;;;;7.85;58.27;98813.81;3406456;28;20573;-74
2021/11/19 06:45:11;;;;;;;17.27;9.75;;;;;;;7.88;58.19;98812.63;3392567;29;20082;-73
2021/11/19 06:47:19;;;;;;;17.83;8.73;;;;;;;7.91;57.96;98801.59;3402976;29;20523;-72
2021/11/19 06:49:28;;;;;;;15.68;8.52;;;;;;;7.95;58.15;98805.47;3397837;29;20181;-73
2021/11/19 06:51:25;;;;;;;18.63;9.75;;;;;;;7.96;57.99;98796.50;3406509;29;20043;-75
2021/11/19 06:53:35;;;;;;;15.00;8.55;;;;;;;8.05;58.23;98795.28;3401328;29;20055;-75
2021/11/19 06:55:45;;;;;;;16.15;8.98;;;;;;;8.08;57.68;98793.06;3393310;29;20503;-76
2021/11/19 06:57:35;;;;;;;16.58;8.25;;;;;;;8.02;57.86;98799.16;3415051;29;20197;-74
2021/11/19 06:59:16;;;;;;;16.98;8.85;;;;;;;7.97;58.01;98795.47;3403725;28;20051;-74
2021/11/19 07:01:01;;;;;;;13.10;8.57;;;;;;;7.93;58.00;98794.25;3411427;28;20118;-74
2021/11/19 07:02:41;;;;;;;20.52;10.15;;;;;;;7.89;57.70;98798.31;3414137;28;20062;-74
2021/11/19 07:04:22;;;;;;;21.67;9.45;;;;;;;7.86;58.15;98795.03;3402090;29;20130;-74
2021/11/19 07:06:03;;;;;;;16.20;9.80;;;;;;;7.90;58.02;98797.28;3382767;29;20032;-76
2021/11/19 07:07:45;;;;;;;17.05;9.55;;;;;;;7.94;58.22;98795.88;3383613;29;20158;-75
2021/11/19 07:09:27;;;;;;;17.98;8.77;;;;;;;7.98;58.21;98797.94;3408673;29;20043;-74
2021/11/19 07:11:13;;;;;;;19.20;10.17;;;;;;;7.99;58.05;98798.75;3400891;29;20031;-73
2021/11/19 07:12:55;;;;;;;19.60;9.73;;;;;;;7.98;58.07;98797.13;3395400;29;20566;-75
2021/11/19 07:14:36;;;;;;;17.55;8.85;;;;;;;7.99;58.06;98802.22;3421330;28;20042;-75
2021/11/19 07:16:18;;;;;;;15.77;8.45;;;;;;;8.02;58.01;98795.69;3408631;28;20046;-75
2021/11/19 07:18:02;;;;;;;18.75;9.45;;;;;;;8.02;57.87;98803.66;3411580;29;20102;-73
2021/11/19 07:19:44;;;;;;;19.13;9.85;;;;;;;8.02;57.92;98793.03;3422482;28;20075;-74
2021/11/19 07:21:26;;;;;;;16.33;8.70;;;;;;;8.03;57.88;98790.22;3412383;28;20394;-73
2021/11/19 07:23:09;;;;;;;13.88;8.10;;;;;;;8.06;57.83;98786.34;3427117;28;20049;-73
2021/11/19 07:24:52;;;;;;;22.88;8.77;;;;;;;8.15;57.73;98790.41;3414770;28;20095;-74
2021/11/19 07:26:34;;;;;;;13.23;8.38;;;;;;;8.21;57.69;98792.28;3412182;28;20419;-73
2021/11/19 07:28:16;;;;;;;14.80;8.52;;;;;;;8.23;57.42;98795.53;3412268;28;20534;-75
2021/11/19 07:29:58;;;;;;;16.90;8.82;;;;;;;8.21;57.45;98788.78;3428853;28;20603;-75
2021/11/19 07:32:05;;;;;;;14.63;9.23;;;;;;;8.17;57.49;98788.38;3413172;28;20099;-73
2021/11/19 07:34:05;;;;;;;15.27;8.32;;;;;;;8.18;57.42;98784.72;3429249;28;20042;-72
2021/11/19 07:36:08;;;;;;;13.48;7.55;;;;;;;8.25;57.39;98782.88;3416790;28;20421;-74
2021/11/19 07:38:08;;;;;;;11.60;7.05;;;;;;;8.38;57.43;98781.28;3437370;28;20616;-73
2021/11/19 07:40:12;;;;;;;14.00;7.20;;;;;;;8.44;57.24;98775.19;3392792;28;20149;-74
2021/11/19 07:42:28;;;;;;;13.32;7.32;;;;;;;8.40;56.99;98779.28;3413267;29;20142;-72
2021/11/19 07:44:38;;;;;;;14.65;8.95;;;;;;;8.34;57.09;98772.06;3400513;28;20055;-73
2021/11/19 07:46:33;;;;;;;19.27;7.85;;;;;;;8.28;57.15;98771.03;3399637;29;20614;-72
2021/11/19 07:48:22;;;;;;;16.67;9.50;;;;;;;8.27;57.21;98775.53;3412291;28;20520;-73
2021/11/19 07:50:10;;;;;;;15.10;8.20;;;;;;;8.24;57.26;98785.75;3416522;28;20082;-74
2021/11/19 07:51:52;;;;;;;14.55;8.38;;;;;;;8.24;57.29;98770.66;3433541;28;20034;-74
2021/11/19 07:53:39;;;;;;;13.73;8.00;;;;;;;8.23;57.08;98769.00;3415919;28;20050;-76
2021/11/19 07:55:21;;;;;;;15.93;7.70;;;;;;;8.20;57.18;98774.72;3411873;28;20676;-75
2021/11/19 07:57:04;;;;;;;12.18;7.30;;;;;;;8.15;57.15;98769.19;3410344;28;20522;-74
2021/11/19 07:58:47;;;;;;;13.05;7.38;;;;;;;8.07;57.26;98764.06;3420709;28;20138;-76
2021/11/19 08:00:32;;;;;;;13.88;8.07;;;;;;;8.07;57.26;98772.84;3427146;28;20038;-78
2021/11/19 08:02:26;;;;;;;14.93;8.98;;;;;;;8.03;57.34;98771.63;3394304;29;20052;-76
2021/11/19 08:04:13;;;;;;;12.43;7.40;;;;;;;8.01;57.53;98771.00;3414438;28;20129;-77
2021/11/19 08:06:00;;;;;;;14.80;7.72;;;;;;;7.93;57.46;98757.13;3405293;28;20059;-76
2021/11/19 08:07:43;;;;;;;13.60;7.90;;;;;;;7.92;57.54;98761.59;3399556;28;20138;-78
2021/11/19 08:09:44;;;;;;;19.60;8.23;;;;;;;7.92;57.67;98758.13;3425877;28;20031;-77
2021/11/19 08:11:49;;;;;;;13.93;7.05;;;;;;;7.91;57.78;98761.81;3428789;28;20273;-76
2021/11/19 08:13:31;;;;;;;12.35;7.88;;;;;;;7.86;57.64;98755.25;3427710;28;20042;-76
2021/11/19 08:15:15;;;;;;;12.30;7.47;;;;;;;7.87;57.71;98764.03;3414404;28;20039;-78
2021/11/19 08:17:02;;;;;;;14.65;7.97;;;;;;;7.88;57.62;98764.88;3439952;28;20047;-76
2021/11/19 08:18:58;;;;;;;11.68;6.90;;;;;;;7.85;57.79;98750.16;3426421;28;20066;-77